Current Weather

Giddings-Lee County

Giddings, Texas (KGYB)

Report from: Tuesday, September 27, 2022 12:55 AM UTC
Current time: Tuesday, September 27, 2022 1:41 AM UTC

Nearby weather
Weather history
Weather forecast

Temperature27.6°C (81.7°F)
Heat index27.0°C (80.6°F)
Dew point7.5°C (45.5°F)
Winds 5 kts (2.6 m/s, 5.8 mph) North-Northeast (30°)
Visibility10 mi. (16.1 km)
Clouds Sky clear
Altimeter30.03 in.Hg (1017 mB)
Relative humidity28 %
Density altitude1,480 ft. (451 m)
Remarks Fully automated report
Automated weather observing station with precipitation discriminator
Flight conditions Visual Meteorological Conditions
Raw dataKGYB 270055Z AUTO 03005KT 10SM CLR 28/08 A3003 RMK AO2 T02760075
An unhandled exception has occurred. See browser dev tools for details. Reload 🗙